Time;durP1;ratioP1;P1;durP2;ratioP2;P2;SDS_P1;SDS_P2;PMS_P1;PMS_P2;Temp;Humidity;BMP_temperature;BMP_pressure;BME280_temperature;BME280_humidity;BME280_pressure;Samples;Min_cycle;Max_cycle;Signal;HPM_P1;HPM_P2
2022/07/18 00:01:19;;;;;;;9.70;6.28;;;;;;;28.09;48.03;101655.69;4970636;28;20054;-82
2022/07/18 00:03:45;;;;;;;9.07;7.03;;;;;;;28.33;47.97;101701.16;4970142;28;20054;-81
2022/07/18 00:06:12;;;;;;;9.75;7.05;;;;;;;28.22;47.85;101673.78;4969980;28;20108;-81
2022/07/18 00:08:39;;;;;;;13.15;7.72;;;;;;;28.34;48.06;101694.63;4987251;28;20065;-81
2022/07/18 00:11:06;;;;;;;12.25;7.07;;;;;;;28.39;48.03;101701.31;4970340;28;20066;-81
2022/07/18 00:13:33;;;;;;;13.85;7.35;;;;;;;28.20;47.91;101679.47;4970141;28;20054;-81
2022/07/18 00:15:59;;;;;;;12.85;6.65;;;;;;;28.01;47.73;101647.78;4969979;28;20141;-81
2022/07/18 00:18:26;;;;;;;9.35;6.88;;;;;;;27.70;47.48;101589.53;4970296;28;20054;-81
2022/07/18 00:20:53;;;;;;;8.68;7.60;;;;;;;28.32;47.98;101696.75;4970129;28;20239;-79
2022/07/18 00:23:20;;;;;;;10.45;6.65;;;;;;;28.39;47.73;101704.03;4969918;28;20125;-79
2022/07/18 00:25:47;;;;;;;7.75;6.80;;;;;;;27.97;47.62;101643.84;4969911;28;20105;-81
2022/07/18 00:28:13;;;;;;;9.02;7.75;;;;;;;28.31;47.88;101689.63;4970266;28;20138;-81
2022/07/18 00:30:41;;;;;;;8.60;7.50;;;;;;;27.70;47.65;101589.53;4970108;28;20077;-82
2022/07/18 00:33:08;;;;;;;8.85;7.95;;;;;;;28.15;47.37;101660.22;4969887;28;20062;-80
2022/07/18 00:35:34;;;;;;;11.32;7.60;;;;;;;27.79;47.35;101599.06;4969827;28;20066;-81
2022/07/18 00:38:02;;;;;;;11.02;7.93;;;;;;;28.17;47.58;101666.28;4969109;28;20065;-81
2022/07/18 00:40:30;;;;;;;9.48;7.15;;;;;;;28.22;47.49;101680.06;4969870;28;20514;-81
2022/07/18 00:42:57;;;;;;;9.02;7.50;;;;;;;28.19;47.95;101696.09;4969789;28;20054;-80
2022/07/18 00:45:24;;;;;;;9.82;7.70;;;;;;;27.58;47.96;101602.25;4987087;28;20469;-81
2022/07/18 00:47:51;;;;;;;10.32;7.28;;;;;;;27.86;48.20;101653.59;4969853;28;20065;-80
2022/07/18 00:50:22;;;;;;;14.48;8.52;;;;;;;28.08;48.22;101700.38;4969952;28;20133;-82
2022/07/18 00:52:49;;;;;;;;;;;;;;;27.98;48.41;101697.34;4970460;28;20042;-81
2022/07/18 00:55:16;;;;;;;9.27;7.47;;;;;;;28.03;47.88;101697.50;4970676;28;19976;-82
2022/07/18 00:57:43;;;;;;;10.70;7.65;;;;;;;28.17;47.91;101684.56;4970312;28;20046;-81
2022/07/18 01:02:59;;;;;;;9.75;7.72;;;;;;;28.22;47.83;101684.72;4988086;28;20061;-81
2022/07/18 01:05:26;;;;;;;9.15;7.10;;;;;;;28.27;47.33;101693.88;4970481;28;20058;-81
2022/07/18 01:07:53;;;;;;;10.07;7.60;;;;;;;28.06;46.78;101637.84;4970354;28;20054;-80
2022/07/18 01:10:19;;;;;;;14.60;7.30;;;;;;;28.48;46.77;101691.78;4970270;28;20505;-80
2022/07/18 01:12:46;;;;;;;13.27;8.00;;;;;;;28.56;46.45;101686.00;4970697;28;20050;-80
2022/07/18 01:15:13;;;;;;;10.18;8.10;;;;;;;28.19;47.27;101677.81;4970549;28;20136;-81
2022/07/18 01:17:40;;;;;;;9.38;8.15;;;;;;;28.12;47.68;101685.25;4970464;28;20065;-80
2022/07/18 01:20:07;;;;;;;10.88;7.10;;;;;;;28.13;47.56;101692.34;4970472;28;20058;-82
2022/07/18 01:22:34;;;;;;;9.50;8.02;;;;;;;27.96;47.88;101686.66;4971297;28;20552;-81
2022/07/18 01:25:01;;;;;;;8.93;7.85;;;;;;;27.91;47.95;101684.63;4972489;28;20046;-79
2022/07/18 01:27:28;;;;;;;10.05;8.45;;;;;;;28.00;48.05;101692.50;4973412;28;20097;-80
2022/07/18 01:29:54;;;;;;;10.73;7.68;;;;;;;27.82;47.92;101675.06;4971801;28;20047;-81
2022/07/18 01:32:21;;;;;;;12.48;8.70;;;;;;;27.43;47.78;101588.97;4970558;28;20340;-81
2022/07/18 01:34:49;;;;;;;7.25;6.55;;;;;;;27.87;48.11;101685.31;4969370;28;20413;-81
2022/07/18 01:37:16;;;;;;;8.48;7.68;;;;;;;27.95;47.97;101686.91;4986554;28;20058;-81
2022/07/18 01:39:45;;;;;;;13.13;7.15;;;;;;;27.62;47.77;101637.03;4969260;28;20046;-81
2022/07/18 01:42:13;;;;;;;7.80;7.10;;;;;;;27.68;47.96;101640.75;4986763;28;20101;-80
2022/07/18 01:44:40;;;;;;;10.38;7.18;;;;;;;27.88;48.10;101685.06;4987158;28;20084;-81
2022/07/18 01:47:08;;;;;;;13.32;8.15;;;;;;;27.88;48.05;101698.69;4969554;28;20050;-82
2022/07/18 01:49:36;;;;;;;10.35;8.20;;;;;;;27.14;48.38;101607.66;4972445;28;20049;-81
2022/07/18 01:52:04;;;;;;;11.02;8.45;;;;;;;27.47;48.39;101656.47;4990203;28;20105;-81
2022/07/18 01:54:33;;;;;;;8.25;6.93;;;;;;;27.62;48.65;101693.47;4973095;28;20062;-81
2022/07/18 01:57:02;;;;;;;9.75;8.20;;;;;;;27.48;49.39;101693.59;4990531;28;20375;-80
2022/07/18 01:59:29;;;;;;;9.13;7.95;;;;;;;27.00;48.97;101617.00;4972699;28;20054;-81
2022/07/18 02:01:56;;;;;;;11.13;8.75;;;;;;;27.50;49.10;101704.25;4973416;28;20055;-81
2022/07/18 02:07:08;;;;;;;12.48;8.48;;;;;;;27.58;48.59;101686.81;4993201;28;20712;-82
2022/07/18 02:09:35;;;;;;;12.15;7.90;;;;;;;26.68;48.91;101559.81;4980829;28;20042;-83
2022/07/18 02:12:01;;;;;;;13.07;8.68;;;;;;;27.36;49.11;101687.19;5012614;28;20085;-83
2022/07/18 02:14:28;;;;;;;10.13;8.18;;;;;;;27.00;49.11;101628.72;4995080;28;20046;-82
2022/07/18 02:16:55;;;;;;;9.40;8.25;;;;;;;27.47;49.15;101697.34;4997087;28;20557;-81
2022/07/18 02:19:21;;;;;;;8.93;8.13;;;;;;;27.60;48.61;101709.22;4973160;28;20050;-82
2022/07/18 02:21:48;;;;;;;8.13;7.32;;;;;;;27.60;48.71;101703.75;4990156;28;20046;-80
2022/07/18 02:24:15;;;;;;;13.95;8.77;;;;;;;27.58;48.75;101705.91;4989973;28;20050;-81
2022/07/18 02:26:42;;;;;;;9.90;8.77;;;;;;;27.48;48.98;101706.41;4971915;28;20043;-80
2022/07/18 02:29:10;;;;;;;12.35;7.65;;;;;;;27.41;49.27;101711.91;4972323;28;20093;-79
2022/07/18 02:31:36;;;;;;;12.18;8.05;;;;;;;27.31;49.25;101706.09;4990344;28;20062;-80
2022/07/18 02:34:09;;;;;;;14.63;8.85;;;;;;;27.08;49.23;101669.31;4972235;28;20042;-81
2022/07/18 02:36:38;;;;;;;13.55;8.13;;;;;;;26.99;49.75;101664.34;4989515;28;20058;-81
2022/07/18 02:39:06;;;;;;;11.25;8.65;;;;;;;27.18;49.62;101692.53;4971947;28;20050;-80
2022/07/18 02:41:34;;;;;;;10.00;8.68;;;;;;;27.25;49.69;101701.53;4972492;28;20074;-79
2022/07/18 02:44:01;;;;;;;9.60;8.70;;;;;;;26.92;50.16;101658.97;4971959;28;20666;-81
2022/07/18 02:46:27;;;;;;;10.70;8.65;;;;;;;27.15;49.83;101692.97;4971921;28;20054;-79
2022/07/18 02:48:54;;;;;;;10.00;8.88;;;;;;;27.18;50.24;101711.59;4989270;28;20641;-80
2022/07/18 02:51:21;;;;;;;14.27;9.13;;;;;;;26.98;50.31;101689.94;4989212;28;20089;-81
2022/07/18 02:53:48;;;;;;;11.60;8.93;;;;;;;27.05;50.55;101718.81;4971547;28;20116;-80
2022/07/18 02:56:14;;;;;;;10.10;8.77;;;;;;;27.02;50.76;101718.44;4971895;28;20490;-80
2022/07/18 02:58:41;;;;;;;12.10;8.90;;;;;;;27.03;50.41;101703.75;4972040;28;20038;-80
2022/07/18 03:01:08;;;;;;;11.93;8.30;;;;;;;27.07;50.54;101732.22;4971552;28;20096;-81
2022/07/18 03:03:35;;;;;;;12.25;8.68;;;;;;;26.70;51.03;101688.44;4971815;28;20145;-80
2022/07/18 03:06:02;;;;;;;11.57;8.77;;;;;;;26.89;50.80;101730.22;4971439;28;20283;-81
2022/07/18 03:08:28;;;;;;;15.23;9.80;;;;;;;26.67;51.10;101710.63;4971817;28;20053;-80
2022/07/18 03:10:55;;;;;;;11.07;9.95;;;;;;;26.36;51.42;101675.97;4971513;28;20057;-80
2022/07/18 03:13:22;;;;;;;14.60;9.63;;;;;;;26.57;51.37;101722.00;4971730;28;20054;-79
2022/07/18 03:15:49;;;;;;;10.90;8.60;;;;;;;26.69;51.60;101743.09;4971677;28;20457;-80
2022/07/18 03:18:17;;;;;;;13.32;9.27;;;;;;;26.52;51.77;101746.28;4971755;28;20070;-80
2022/07/18 03:20:43;;;;;;;10.23;8.52;;;;;;;26.45;52.05;101748.19;4972305;28;20066;-81
2022/07/18 03:23:10;;;;;;;12.13;8.30;;;;;;;26.32;52.39;101743.63;4990026;28;20109;-80
2022/07/18 03:25:37;;;;;;;12.38;9.07;;;;;;;26.37;52.46;101748.44;4992680;28;20057;-81
2022/07/18 03:28:04;;;;;;;11.38;8.88;;;;;;;26.26;52.19;101740.91;4974251;28;20077;-80
2022/07/18 03:30:30;;;;;;;10.73;9.43;;;;;;;26.18;52.78;101717.47;4973628;28;20042;-82
2022/07/18 03:32:57;;;;;;;12.45;9.05;;;;;;;26.19;52.66;101735.47;4989586;28;20089;-81
2022/07/18 03:35:28;;;;;;;;;;;;;;;26.14;53.73;101755.19;4974481;28;20136;-82
2022/07/18 03:37:55;;;;;;;11.68;9.40;;;;;;;26.10;53.24;101734.88;4988708;28;19921;-82
2022/07/18 03:40:21;;;;;;;12.45;10.43;;;;;;;26.17;53.45;101735.69;4971978;28;20277;-80
2022/07/18 03:42:48;;;;;;;13.93;10.00;;;;;;;26.16;54.14;101761.22;4973017;28;20050;-80
2022/07/18 03:45:15;;;;;;;13.68;10.55;;;;;;;26.15;54.12;101758.72;4973912;28;20124;-81
2022/07/18 03:47:41;;;;;;;18.05;11.45;;;;;;;25.90;54.28;101736.78;4977019;28;20061;-79
2022/07/18 03:50:09;;;;;;;18.25;11.02;;;;;;;25.97;54.92;101749.34;4977621;28;20065;-80
2022/07/18 03:52:35;;;;;;;18.02;11.18;;;;;;;25.98;55.66;101752.91;4974248;28;20112;-80
2022/07/18 03:55:03;;;;;;;21.65;13.40;;;;;;;25.93;55.77;101741.81;4970775;28;20073;-80
2022/07/18 03:57:29;;;;;;;15.02;12.52;;;;;;;25.98;56.36;101750.19;4988577;28;20241;-80
2022/07/18 03:59:56;;;;;;;18.15;13.40;;;;;;;25.88;57.00;101741.63;4970809;28;20050;-80
2022/07/18 04:02:22;;;;;;;16.58;12.85;;;;;;;26.01;57.06;101763.34;4970576;28;20055;-81
2022/07/18 04:04:49;;;;;;;15.95;12.38;;;;;;;25.99;57.20;101769.00;4988498;28;20113;-79
2022/07/18 04:07:16;;;;;;;17.80;13.25;;;;;;;25.96;56.96;101761.25;4970497;28;20584;-80
2022/07/18 04:09:43;;;;;;;15.75;12.73;;;;;;;25.88;57.31;101766.09;4970471;28;20053;-79
2022/07/18 04:12:10;;;;;;;20.33;14.00;;;;;;;25.28;57.11;101662.72;4969383;28;20473;-80
2022/07/18 04:14:36;;;;;;;18.13;12.23;;;;;;;25.70;57.10;101732.16;4970526;28;20101;-81
2022/07/18 04:17:03;;;;;;;19.45;13.32;;;;;;;25.34;56.77;101676.34;4987958;28;20050;-82
2022/07/18 04:19:30;;;;;;;15.02;11.13;;;;;;;25.90;56.30;101758.53;4969986;28;20545;-80
2022/07/18 04:21:57;;;;;;;21.05;14.05;;;;;;;25.99;56.42;101762.72;4970086;28;20061;-80
2022/07/18 04:24:24;;;;;;;26.55;15.90;;;;;;;25.97;56.46;101764.81;4968354;28;20050;-80
2022/07/18 04:26:51;;;;;;;20.88;13.60;;;;;;;25.83;56.47;101742.22;4948768;28;20066;-82
2022/07/18 04:29:18;;;;;;;22.33;14.90;;;;;;;26.10;56.38;101781.13;4948992;28;20058;-82
2022/07/18 04:31:44;;;;;;;16.10;13.07;;;;;;;25.88;56.67;101750.59;4949295;28;20051;-80
2022/07/18 04:34:11;;;;;;;20.13;13.13;;;;;;;26.20;55.94;101786.97;4948982;28;20530;-82
2022/07/18 04:36:38;;;;;;;18.45;13.90;;;;;;;26.01;56.12;101747.03;4948009;28;20046;-80
2022/07/18 04:39:04;;;;;;;14.32;12.82;;;;;;;26.22;55.34;101754.94;4969160;28;20379;-81
2022/07/18 04:41:31;;;;;;;18.48;13.82;;;;;;;26.28;55.94;101782.34;4962708;28;20118;-81
2022/07/18 04:44:01;;;;;;;19.40;13.50;;;;;;;26.35;55.73;101777.75;4932826;28;20113;-80
2022/07/18 04:46:28;;;;;;;23.25;14.15;;;;;;;26.26;56.02;101779.84;4966368;28;20062;-81
2022/07/18 04:48:55;;;;;;;22.42;13.27;;;;;;;26.37;55.72;101781.09;4949493;28;20566;-80
2022/07/18 04:51:22;;;;;;;17.08;13.60;;;;;;;26.39;55.61;101777.09;4947458;28;20101;-80
2022/07/18 04:53:49;;;;;;;19.25;14.57;;;;;;;26.30;55.79;101778.38;4951108;28;20058;-80
2022/07/18 04:56:15;;;;;;;18.38;12.40;;;;;;;26.19;55.67;101760.81;4956401;28;20121;-79
2022/07/18 04:58:42;;;;;;;16.15;12.25;;;;;;;26.15;55.49;101742.41;4948691;28;20054;-80
2022/07/18 05:01:09;;;;;;;22.90;12.70;;;;;;;26.13;55.09;101709.94;4949004;28;20546;-81
2022/07/18 05:03:36;;;;;;;14.90;11.70;;;;;;;26.43;55.20;101769.34;4948615;28;20602;-81
2022/07/18 05:06:04;;;;;;;19.95;12.80;;;;;;;26.22;55.13;101735.91;4948786;28;20055;-81
2022/07/18 05:08:31;;;;;;;16.38;11.98;;;;;;;26.43;54.98;101789.25;4948883;28;20125;-80
2022/07/18 05:11:00;;;;;;;16.67;10.95;;;;;;;26.49;54.94;101782.09;4948982;28;20047;-80
2022/07/18 05:13:27;;;;;;;18.23;11.20;;;;;;;26.38;53.51;101745.47;4940879;28;20063;-79
2022/07/18 05:15:54;;;;;;;18.92;10.55;;;;;;;26.51;52.94;101758.22;4929925;29;20085;-81
2022/07/18 05:18:21;;;;;;;15.32;10.52;;;;;;;26.72;53.13;101778.91;4929912;29;20074;-81
2022/07/18 05:20:48;;;;;;;13.25;10.75;;;;;;;26.72;52.96;101757.13;4946842;28;20252;-78
2022/07/18 05:23:15;;;;;;;11.80;10.57;;;;;;;26.74;53.03;101748.75;4931255;29;20051;-80
2022/07/18 05:25:42;;;;;;;12.27;10.48;;;;;;;26.89;52.78;101768.34;4944700;28;20668;-79
2022/07/18 05:28:08;;;;;;;21.50;10.73;;;;;;;26.67;52.77;101704.34;4972653;28;20054;-83
2022/07/18 05:30:35;;;;;;;10.23;9.23;;;;;;;26.82;53.49;101724.81;4954645;28;20093;-80
2022/07/18 05:33:02;;;;;;;13.10;9.55;;;;;;;26.42;52.83;101648.72;4969670;28;20291;-82
2022/07/18 05:35:29;;;;;;;11.13;9.38;;;;;;;26.84;53.35;101716.41;4951809;28;20050;-82
2022/07/18 05:37:56;;;;;;;14.35;10.32;;;;;;;27.11;53.07;101770.78;4952305;28;20054;-80
2022/07/18 05:40:22;;;;;;;16.17;11.00;;;;;;;27.15;53.82;101772.00;4982997;28;20050;-81
2022/07/18 05:42:52;;;;;;;12.27;9.82;;;;;;;27.25;53.42;101773.22;4989144;28;20058;-80
2022/07/18 05:45:24;;;;;;;10.82;9.73;;;;;;;27.22;53.54;101745.59;4971315;28;20516;-81
2022/07/18 05:47:53;;;;;;;10.57;9.38;;;;;;;26.92;53.31;101702.56;4950971;28;20064;-82
2022/07/18 05:50:20;;;;;;;14.35;10.55;;;;;;;27.39;53.68;101779.44;4932229;28;20051;-79
2022/07/18 05:52:47;;;;;;;12.73;10.10;;;;;;;26.70;53.31;101665.78;4954677;28;20062;-81
2022/07/18 05:55:16;;;;;;;12.43;9.52;;;;;;;27.33;53.71;101774.03;4972252;28;20065;-81
2022/07/18 05:57:43;;;;;;;13.18;9.82;;;;;;;27.37;53.95;101776.09;4957455;28;20492;-80
2022/07/18 06:00:11;;;;;;;16.85;11.05;;;;;;;27.30;53.52;101745.31;4949532;28;20243;-81
2022/07/18 06:02:38;;;;;;;11.55;9.52;;;;;;;27.52;53.15;101773.06;4933386;28;20308;-81
2022/07/18 06:05:06;;;;;;;12.32;9.40;;;;;;;27.38;53.75;101750.53;4949836;28;20106;-82
2022/07/18 06:07:49;;;;;;;13.25;10.27;;;;;;;27.57;53.82;101783.31;4935859;28;20105;-81
2022/07/18 06:10:15;;;;;;;15.02;11.50;;;;;;;27.41;53.37;101735.59;4933626;29;20370;-82
2022/07/18 06:12:42;;;;;;;17.10;10.43;;;;;;;27.54;53.12;101756.47;4950505;28;20610;-80
2022/07/18 06:15:09;;;;;;;13.15;10.45;;;;;;;27.66;52.98;101776.53;4932736;28;20054;-80
2022/07/18 06:17:36;;;;;;;14.05;10.93;;;;;;;27.95;52.40;101793.31;4932372;28;20051;-81
2022/07/18 06:20:05;;;;;;;18.25;10.27;;;;;;;27.11;51.85;101645.41;4931789;28;20043;-81
2022/07/18 06:22:32;;;;;;;13.35;9.70;;;;;;;28.06;50.75;101796.16;4931252;28;20070;-81
2022/07/18 06:24:59;;;;;;;12.85;10.13;;;;;;;28.00;50.60;101785.31;4949116;28;20104;-81
2022/07/18 06:27:25;;;;;;;13.00;10.38;;;;;;;27.91;50.39;101771.09;4932047;29;20102;-80
2022/07/18 06:29:52;;;;;;;10.65;9.50;;;;;;;28.08;50.59;101771.34;4931844;29;20105;-82
2022/07/18 06:32:19;;;;;;;12.63;10.00;;;;;;;28.18;50.02;101782.63;4949060;28;20384;-81
2022/07/18 06:34:46;;;;;;;15.30;9.55;;;;;;;28.19;49.73;101784.28;4931315;29;20082;-79
2022/07/18 06:37:12;;;;;;;11.35;8.70;;;;;;;28.30;49.77;101786.28;4933332;29;20206;-80
2022/07/18 06:39:39;;;;;;;15.23;10.10;;;;;;;28.38;49.96;101790.59;4947396;28;20042;-80
2022/07/18 06:42:06;;;;;;;11.30;9.27;;;;;;;28.27;49.09;101743.00;4971544;28;20129;-81
2022/07/18 06:44:32;;;;;;;16.25;8.07;;;;;;;28.23;48.82;101719.97;4971613;28;20058;-80
2022/07/18 06:46:59;;;;;;;14.38;8.70;;;;;;;28.44;48.80;101732.31;4971360;28;20426;-81
2022/07/18 06:49:26;;;;;;;16.77;8.32;;;;;;;28.87;48.45;101779.75;4988461;28;20418;-80
2022/07/18 06:51:53;;;;;;;12.23;8.20;;;;;;;28.60;47.39;101720.00;4988710;28;20053;-81
2022/07/18 06:54:20;;;;;;;13.60;9.30;;;;;;;29.01;47.32;101785.88;4971387;28;20050;-81
2022/07/18 06:56:47;;;;;;;10.85;7.20;;;;;;;29.06;47.00;101784.16;4971262;28;20061;-82
2022/07/18 06:59:13;;;;;;;7.93;6.70;;;;;;;29.06;47.16;101788.78;4971532;28;20046;-83
2022/07/18 07:01:41;;;;;;;11.73;7.22;;;;;;;29.12;46.69;101766.81;4971084;28;20058;-81
2022/07/18 07:04:08;;;;;;;11.93;7.07;;;;;;;29.13;46.96;101787.63;4971584;28;20060;-80
2022/07/18 07:06:38;;;;;;;11.88;7.10;;;;;;;29.07;47.13;101791.28;4971706;28;20050;-80
2022/07/18 07:09:05;;;;;;;11.52;7.22;;;;;;;29.10;47.28;101792.72;4971369;28;20049;-80
2022/07/18 07:11:32;;;;;;;12.07;7.63;;;;;;;29.15;46.78;101781.91;4971264;28;20509;-80
2022/07/18 07:13:59;;;;;;;15.90;7.60;;;;;;;29.32;46.60;101788.44;4971220;28;20104;-82
2022/07/18 07:16:27;;;;;;;15.50;6.75;;;;;;;29.26;47.11;101802.19;4971501;28;20393;-81
2022/07/18 07:18:54;;;;;;;10.82;7.38;;;;;;;28.63;46.10;101686.75;4971435;28;20104;-80
2022/07/18 07:21:20;;;;;;;7.47;6.78;;;;;;;29.12;46.79;101769.53;4988913;28;20225;-81
2022/07/18 07:23:47;;;;;;;14.30;6.43;;;;;;;29.43;46.56;101796.91;4988651;28;20069;-80
2022/07/18 07:26:14;;;;;;;17.50;6.88;;;;;;;29.45;46.11;101792.03;4972928;28;20061;-80
2022/07/18 07:28:41;;;;;;;11.57;7.22;;;;;;;29.52;45.86;101796.31;4977748;28;20650;-80
2022/07/18 07:31:07;;;;;;;13.23;8.02;;;;;;;29.54;45.99;101791.47;4972450;28;20047;-80
2022/07/18 07:33:34;;;;;;;10.60;6.72;;;;;;;29.22;45.35;101727.97;4970747;28;20046;-80
2022/07/18 07:36:03;;;;;;;14.52;6.45;;;;;;;29.67;45.40;101789.59;4970714;28;20050;-81
2022/07/18 07:38:29;;;;;;;9.02;6.20;;;;;;;29.28;44.90;101710.66;4970847;28;20120;-81
2022/07/18 07:40:57;;;;;;;11.68;6.28;;;;;;;29.58;44.11;101759.81;4970386;28;20113;-81
2022/07/18 07:43:27;;;;;;;7.32;5.25;;;;;;;29.52;43.98;101744.34;4970844;28;20390;-80
2022/07/18 07:45:55;;;;;;;7.53;5.15;;;;;;;29.84;43.24;101776.91;4970405;28;20054;-80
2022/07/18 07:48:24;;;;;;;6.10;5.22;;;;;;;29.96;42.91;101761.31;4970958;28;20049;-82
2022/07/18 07:50:51;;;;;;;10.48;5.50;;;;;;;29.81;43.08;101741.81;4988315;28;20046;-81
2022/07/18 07:53:18;;;;;;;7.00;5.60;;;;;;;29.37;42.43;101665.47;4971387;28;20662;-80
2022/07/18 07:55:45;;;;;;;18.65;5.63;;;;;;;30.15;41.52;101789.41;4971514;28;20581;-80
2022/07/18 07:58:11;;;;;;;10.77;5.25;;;;;;;30.15;41.45;101789.41;4971116;28;20065;-81
2022/07/18 08:00:38;;;;;;;9.15;5.10;;;;;;;30.06;41.67;101765.34;4971472;28;20503;-82
2022/07/18 08:03:07;;;;;;;9.23;6.03;;;;;;;30.31;41.60;101790.59;4988173;28;20113;-80
2022/07/18 08:05:37;;;;;;;10.63;5.78;;;;;;;30.27;41.67;101783.97;4971039;28;20062;-79
2022/07/18 08:08:05;;;;;;;11.57;6.10;;;;;;;30.23;42.23;101783.56;4971518;28;20130;-79
2022/07/18 08:10:32;;;;;;;11.98;5.95;;;;;;;30.41;41.33;101790.81;4971347;28;20047;-80
2022/07/18 08:13:06;;;;;;;11.63;6.07;;;;;;;30.55;40.77;101779.63;4972300;28;20054;-78
2022/07/18 08:15:33;;;;;;;9.82;5.72;;;;;;;30.52;40.80;101777.38;4989198;28;20058;-78
2022/07/18 08:18:00;;;;;;;7.15;6.03;;;;;;;30.44;41.38;101782.16;4971273;28;20698;-79
2022/07/18 08:20:27;;;;;;;7.93;5.70;;;;;;;30.60;41.21;101785.19;4970757;28;20046;-79
2022/07/18 08:23:06;;;;;;;8.90;6.05;;;;;;;30.63;40.77;101788.31;4988669;28;20054;-82
2022/07/18 08:25:36;;;;;;;6.95;4.85;;;;;;;30.60;40.18;101760.53;4972367;28;20061;-84
2022/07/18 08:28:04;;;;;;;6.63;4.60;;;;;;;30.84;40.15;101784.09;4972102;28;20089;-81
2022/07/18 08:30:33;;;;;;;6.90;5.43;;;;;;;30.34;40.29;101690.69;4971618;28;20053;-81
2022/07/18 08:33:01;;;;;;;8.07;5.10;;;;;;;30.92;39.87;101782.03;4988101;28;20065;-80
2022/07/18 08:35:29;;;;;;;10.20;5.10;;;;;;;31.08;38.49;101789.50;4970207;28;20064;-81
2022/07/18 08:37:56;;;;;;;7.72;4.78;;;;;;;30.83;38.65;101766.00;4970668;28;20607;-81
2022/07/18 08:40:23;;;;;;;12.38;4.82;;;;;;;31.01;37.74;101764.94;4970087;28;20058;-82
2022/07/18 08:42:52;;;;;;;8.40;5.15;;;;;;;30.99;38.11;101771.75;4970816;28;20274;-80
2022/07/18 08:45:43;;;;;;;7.05;4.60;;;;;;;31.03;37.48;101770.19;4972749;28;20384;-81
2022/07/18 08:48:20;;;;;;;7.10;5.28;;;;;;;30.73;36.52;101691.75;4969975;28;20094;-82
2022/07/18 08:50:48;;;;;;;7.00;5.10;;;;;;;31.43;36.62;101791.25;4970281;28;20666;-80
2022/07/18 08:53:16;;;;;;;6.93;5.32;;;;;;;31.34;36.83;101792.69;4969793;28;20050;-80
2022/07/18 08:55:44;;;;;;;8.35;5.43;;;;;;;31.52;37.31;101798.00;4969763;28;20502;-80
2022/07/18 08:58:12;;;;;;;5.60;5.10;;;;;;;31.37;36.89;101773.84;4988151;28;20521;-79
2022/07/18 09:00:59;;;;;;;8.40;5.57;;;;;;;31.37;37.03;101781.25;4990671;28;20061;-80
2022/07/18 09:03:26;;;;;;;7.95;5.60;;;;;;;31.01;37.57;101712.03;4972333;28;20693;-81
2022/07/18 09:06:11;;;;;;;10.65;5.30;;;;;;;31.39;36.33;101735.19;4977917;28;20066;-81
2022/07/18 09:08:39;;;;;;;9.43;5.60;;;;;;;31.63;37.14;101797.09;4952105;28;20046;-81
2022/07/18 09:11:11;;;;;;;13.52;5.35;;;;;;;31.64;36.88;101787.78;4953181;28;20062;-81
2022/07/18 09:13:58;;;;;;;8.35;5.13;;;;;;;31.05;36.78;101685.78;4956220;28;20051;-82
2022/07/18 09:16:26;;;;;;;5.63;5.10;;;;;;;31.71;37.37;101788.44;4946747;29;20301;-80
2022/07/18 09:18:53;;;;;;;10.27;5.97;;;;;;;31.02;37.48;101680.78;4942103;28;20112;-80
2022/07/18 09:21:22;;;;;;;7.82;5.90;;;;;;;31.86;36.41;101787.84;4935065;29;20047;-82
2022/07/18 09:23:52;;;;;;;10.43;5.82;;;;;;;31.81;36.99;101784.22;4937167;29;20059;-83
2022/07/18 09:26:40;;;;;;;6.47;5.75;;;;;;;32.12;37.37;101788.28;4938973;29;20070;-82
2022/07/18 09:29:10;;;;;;;7.32;5.70;;;;;;;31.09;37.10;101618.38;4936563;29;20098;-81
2022/07/18 09:31:55;;;;;;;6.20;5.60;;;;;;;32.22;36.94;101776.63;4936827;29;20047;-81
2022/07/18 09:34:39;;;;;;;9.60;5.55;;;;;;;32.30;37.15;101770.66;4950831;28;20047;-81
2022/07/18 09:37:13;;;;;;;12.88;5.28;;;;;;;31.55;37.05;101652.06;4946657;28;20126;-81
2022/07/18 09:39:42;;;;;;;8.82;5.05;;;;;;;32.16;37.36;101745.47;4966146;28;20782;-80
2022/07/18 09:42:16;;;;;;;7.28;5.28;;;;;;;31.48;36.28;101624.81;4970891;28;20109;-81
2022/07/18 09:44:57;;;;;;;10.43;5.55;;;;;;;31.64;36.11;101633.25;4956050;28;20054;-80
2022/07/18 09:47:23;;;;;;;12.23;6.00;;;;;;;32.54;36.68;101780.38;4971352;28;20062;-78
2022/07/18 09:49:50;;;;;;;10.20;7.15;;;;;;;32.25;36.85;101730.22;4971569;28;20062;-80
2022/07/18 09:52:17;;;;;;;8.45;5.70;;;;;;;32.69;37.02;101770.66;4971401;28;20050;-82
2022/07/18 09:54:44;;;;;;;10.75;5.85;;;;;;;32.77;36.88;101776.53;4969935;28;20057;-82
2022/07/18 09:57:26;;;;;;;6.07;4.88;;;;;;;32.75;37.03;101770.47;4956392;28;20055;-82
2022/07/18 09:59:53;;;;;;;8.15;5.00;;;;;;;33.06;36.88;101775.50;4951937;28;20157;-81
2022/07/18 10:02:21;;;;;;;6.85;6.15;;;;;;;33.12;36.62;101752.47;4949638;28;20059;-82
2022/07/18 10:04:50;;;;;;;9.65;6.22;;;;;;;33.35;36.15;101776.91;4949673;28;20398;-80
2022/07/18 10:07:17;;;;;;;8.50;6.03;;;;;;;33.44;36.13;101780.00;4969043;28;20069;-80
2022/07/18 10:09:45;;;;;;;10.88;6.97;;;;;;;33.43;36.12;101764.59;4950343;28;20047;-81
2022/07/18 10:12:14;;;;;;;7.93;5.70;;;;;;;33.10;36.48;101733.44;4968871;28;20100;-83
2022/07/18 10:14:42;;;;;;;10.77;6.43;;;;;;;33.11;36.54;101737.03;4951419;28;20772;-81
2022/07/18 10:17:10;;;;;;;12.68;6.72;;;;;;;33.42;36.35;101755.50;4950612;28;20055;-79
2022/07/18 10:19:38;;;;;;;7.13;5.68;;;;;;;33.37;36.62;101730.66;4950920;28;20090;-82
2022/07/18 10:22:07;;;;;;;11.73;6.13;;;;;;;33.69;36.18;101737.28;4968447;28;20058;-81
2022/07/18 10:24:40;;;;;;;6.72;6.13;;;;;;;33.77;35.07;101743.13;4951192;28;20055;-81
2022/07/18 10:27:16;;;;;;;7.93;5.47;;;;;;;33.88;35.61;101726.66;4950987;28;20054;-81
2022/07/18 10:30:12;;;;;;;9.88;5.50;;;;;;;34.29;35.84;101765.50;4952521;28;20054;-81
2022/07/18 10:32:54;;;;;;;12.40;6.75;;;;;;;34.23;35.36;101768.22;4970298;28;20418;-80
2022/07/18 10:36:25;;;;;;;9.63;6.82;;;;;;;34.41;35.35;101747.63;4972870;28;20126;-80
2022/07/18 10:39:34;;;;;;;11.18;5.75;;;;;;;34.81;34.63;101761.84;4944051;28;20058;-81
2022/07/18 10:42:31;;;;;;;7.40;6.07;;;;;;;34.78;33.94;101762.41;4974762;28;20275;-79
2022/07/18 10:44:58;;;;;;;9.15;6.70;;;;;;;34.74;33.87;101740.06;4972854;28;20054;-81
2022/07/18 10:47:29;;;;;;;5.65;5.05;;;;;;;34.95;33.66;101743.69;4972972;28;20058;-81
2022/07/18 10:50:16;;;;;;;8.55;5.93;;;;;;;34.85;33.53;101710.56;4973247;28;20291;-81
2022/07/18 10:53:09;;;;;;;7.00;5.53;;;;;;;34.88;33.27;101671.41;4961021;28;20647;-80
2022/07/18 10:55:47;;;;;;;7.07;5.28;;;;;;;34.03;32.94;101514.63;4957926;28;20050;-80
2022/07/18 10:58:44;;;;;;;8.57;6.22;;;;;;;35.13;31.00;101664.31;4974477;28;20062;-79
2022/07/18 11:01:51;;;;;;;7.20;5.97;;;;;;;35.44;31.39;101710.09;4905181;29;20051;-80
2022/07/18 11:04:50;;;;;;;6.38;5.05;;;;;;;35.65;31.09;101737.72;4905520;29;20066;-80
2022/07/18 11:07:18;;;;;;;11.52;5.90;;;;;;;35.29;31.48;101710.91;4894877;29;20740;-79
2022/07/18 11:10:16;;;;;;;6.95;5.60;;;;;;;35.62;32.05;101727.22;4896200;29;20060;-81
2022/07/18 11:13:27;;;;;;;8.95;5.22;;;;;;;35.24;31.96;101638.34;4894320;29;20174;-79
2022/07/18 11:16:19;;;;;;;7.85;5.18;;;;;;;35.75;31.41;101676.94;4895086;29;20056;-80
2022/07/18 11:19:00;;;;;;;13.35;5.43;;;;;;;35.93;30.88;101667.22;4908893;28;20404;-82
2022/07/18 11:21:30;;;;;;;6.35;5.18;;;;;;;36.08;30.56;101691.19;4969683;28;20105;-80
2022/07/18 11:24:11;;;;;;;12.85;5.63;;;;;;;35.90;29.61;101646.50;4954680;28;20054;-82
2022/07/18 11:26:48;;;;;;;6.07;5.28;;;;;;;36.12;30.43;101675.72;4952478;28;20360;-81
2022/07/18 11:29:18;;;;;;;7.03;5.55;;;;;;;36.67;29.32;101715.28;4951706;28;20118;-82
2022/07/18 11:31:49;;;;;;;5.90;5.13;;;;;;;36.87;29.50;101713.50;4952368;28;20047;-80
2022/07/18 11:34:16;;;;;;;5.63;5.13;;;;;;;36.91;29.00;101689.69;4951071;28;20384;-80
2022/07/18 11:36:46;;;;;;;11.30;5.10;;;;;;;36.79;28.83;101665.97;4951479;28;20058;-80